createdAt,value
2023-11-24T00:00:59.624Z,91050.56
2023-11-24T00:03:26.429Z,91056.34
2023-11-24T00:05:53.253Z,91060.53
2023-11-24T00:08:20.020Z,91063.03
2023-11-24T00:10:46.744Z,91046.19
2023-11-24T00:13:13.475Z,91043.03
2023-11-24T00:15:44.102Z,91042.28
2023-11-24T00:18:10.966Z,91038.56
2023-11-24T00:20:38.765Z,91027.53
2023-11-24T00:23:05.581Z,91029.72
2023-11-24T00:25:35.385Z,91018.97
2023-11-24T00:28:02.308Z,91040.09
2023-11-24T00:30:29.079Z,91035.31
2023-11-24T00:32:55.909Z,91035.13
2023-11-24T00:35:22.710Z,91032.28
2023-11-24T00:37:49.725Z,91028.44
2023-11-24T00:40:19.477Z,91025.88
2023-11-24T00:42:46.362Z,91016.88
2023-11-24T00:45:13.530Z,91007.22
2023-11-24T00:47:40.602Z,91013.09
2023-11-24T00:50:08.031Z,90997.50
2023-11-24T00:52:34.762Z,91007.72
2023-11-24T00:55:01.546Z,90997.59
2023-11-24T00:57:28.287Z,90998.84
2023-11-24T00:59:54.965Z,90996.84
2023-11-24T01:02:21.706Z,90994.13
2023-11-24T01:04:49.438Z,91002.63
2023-11-24T01:07:16.421Z,90989.03
2023-11-24T01:09:43.152Z,90981.19
2023-11-24T01:12:09.943Z,90979.38
2023-11-24T01:14:36.635Z,90972.88
2023-11-24T01:17:04.126Z,90974.69
2023-11-24T01:19:30.909Z,90969.31
2023-11-24T01:21:58.280Z,90962.75
2023-11-24T01:24:25.106Z,90957.81
2023-11-24T01:26:51.894Z,90964.63
2023-11-24T01:29:18.567Z,90952.81
2023-11-24T01:31:45.876Z,90951.38
2023-11-24T01:34:12.735Z,90950.63
2023-11-24T01:36:39.708Z,90948.72
2023-11-24T01:39:09.482Z,90945.59
2023-11-24T01:41:36.326Z,90935.16
2023-11-24T01:44:04.334Z,90925.97
2023-11-24T01:46:32.464Z,90919.31
2023-11-24T01:48:59.972Z,90919.94
2023-11-24T01:51:27.773Z,90918.00
2023-11-24T01:53:55.327Z,90907.50
2023-11-24T01:56:22.616Z,90891.94
2023-11-24T01:58:51.325Z,90894.97
2023-11-24T02:01:18.029Z,90887.97
2023-11-24T02:03:44.904Z,90897.38
2023-11-24T02:06:12.892Z,90885.84
2023-11-24T02:08:40.428Z,90888.63
2023-11-24T02:11:07.703Z,90880.16
2023-11-24T02:13:34.361Z,90878.09
2023-11-24T02:16:01.663Z,90863.03
2023-11-24T02:18:28.623Z,90861.53
2023-11-24T02:20:55.475Z,90856.94
2023-11-24T02:23:23.218Z,90855.34
2023-11-24T02:25:50.450Z,90858.19
2023-11-24T02:28:17.203Z,90848.25
2023-11-24T02:30:44.063Z,90848.44
2023-11-24T02:33:12.096Z,90841.59
2023-11-24T02:35:43.795Z,90841.69
2023-11-24T02:38:10.531Z,90834.41
2023-11-24T02:40:37.288Z,90838.84
2023-11-24T02:43:04.063Z,90829.59
2023-11-24T02:45:31.189Z,90834.84
2023-11-24T02:47:58.025Z,90830.00
2023-11-24T02:50:24.785Z,90829.72
2023-11-24T02:52:51.448Z,90829.09
2023-11-24T02:55:19.788Z,90826.91
2023-11-24T02:57:48.729Z,90821.63
2023-11-24T03:00:17.213Z,90820.72
2023-11-24T03:02:44.912Z,90810.91
2023-11-24T03:05:12.886Z,90799.28
2023-11-24T03:07:39.577Z,90808.00
2023-11-24T03:10:06.926Z,90808.91
2023-11-24T03:12:33.631Z,90815.03
2023-11-24T03:15:00.385Z,90808.97
2023-11-24T03:17:27.199Z,90806.03
2023-11-24T03:19:54.500Z,90796.50
2023-11-24T03:22:21.146Z,90791.06
2023-11-24T03:24:47.978Z,90777.69
2023-11-24T03:27:14.691Z,90791.94
2023-11-24T03:29:41.542Z,90792.47
2023-11-24T03:32:08.214Z,90780.38
2023-11-24T03:34:35.050Z,90776.19
2023-11-24T03:37:01.849Z,90782.22
2023-11-24T03:39:28.872Z,90782.13
2023-11-24T03:41:56.578Z,90771.75
2023-11-24T03:44:23.277Z,90767.81
2023-11-24T03:46:49.990Z,90766.44
2023-11-24T03:49:17.180Z,90772.91
2023-11-24T03:51:43.910Z,90727.63
2023-11-24T03:54:10.701Z,90766.06
2023-11-24T03:56:38.627Z,90761.97
2023-11-24T03:59:05.319Z,90747.00
2023-11-24T04:01:32.114Z,90743.88
2023-11-24T04:04:00.406Z,90737.38
2023-11-24T04:06:27.213Z,90739.91
2023-11-24T04:08:54.713Z,90738.41
2023-11-24T04:11:22.051Z,90732.38
2023-11-24T04:13:48.835Z,90724.59
2023-11-24T04:16:15.973Z,90721.69
2023-11-24T04:18:42.791Z,90724.38
2023-11-24T04:21:09.965Z,90718.75
2023-11-24T04:23:36.738Z,90698.94
2023-11-24T04:26:03.955Z,90722.00
2023-11-24T04:28:30.728Z,90719.22
2023-11-24T04:30:57.524Z,90712.34
2023-11-24T04:33:24.242Z,90719.25
2023-11-24T04:35:50.991Z,90716.31
2023-11-24T04:38:17.781Z,90712.53
2023-11-24T04:40:44.467Z,90720.13
2023-11-24T04:43:25.351Z,90715.03
2023-11-24T04:45:52.305Z,90708.63
2023-11-24T04:48:19.004Z,90716.81
2023-11-24T04:50:45.787Z,90720.88
2023-11-24T04:53:12.602Z,90714.28
2023-11-24T04:55:39.361Z,90730.16
2023-11-24T04:58:06.262Z,90727.00
2023-11-24T05:00:33.106Z,90722.41
2023-11-24T05:02:59.857Z,90718.50
2023-11-24T05:05:27.004Z,90711.06
2023-11-24T05:07:54.223Z,90705.19
2023-11-24T05:10:20.957Z,90710.72
2023-11-24T05:12:47.746Z,90704.84
2023-11-24T05:15:20.731Z,90695.91
2023-11-24T05:17:47.578Z,90715.03
2023-11-24T05:20:15.829Z,90713.03
2023-11-24T05:22:42.599Z,90694.63
2023-11-24T05:25:09.501Z,90703.00
2023-11-24T05:27:36.296Z,90701.75
2023-11-24T05:30:07.970Z,90705.44
2023-11-24T05:32:36.213Z,90698.75
2023-11-24T05:35:03.967Z,90699.00
2023-11-24T05:37:30.986Z,90683.63
2023-11-24T05:39:58.239Z,90682.66
2023-11-24T05:42:25.092Z,90695.38
2023-11-24T05:44:51.862Z,90695.56
2023-11-24T05:47:18.553Z,90692.28
2023-11-24T05:49:45.569Z,90699.56
2023-11-24T05:52:16.822Z,90695.72
2023-11-24T05:54:43.757Z,90704.31
2023-11-24T05:57:10.509Z,90694.13
2023-11-24T05:59:37.241Z,90695.91
2023-11-24T06:02:04.994Z,90695.56
2023-11-24T06:04:31.953Z,90695.38
2023-11-24T06:06:58.833Z,90685.31
2023-11-24T06:09:25.575Z,90683.38
2023-11-24T06:11:52.408Z,90678.31
2023-11-24T06:14:19.635Z,90673.06
2023-11-24T06:16:46.382Z,90679.59
2023-11-24T06:19:13.178Z,90676.34
2023-11-24T06:21:41.500Z,90669.81
2023-11-24T06:24:08.674Z,90671.06
2023-11-24T06:26:35.393Z,90664.38
2023-11-24T06:29:02.220Z,90662.84
2023-11-24T06:31:30.745Z,90677.53
2023-11-24T06:33:58.031Z,90668.84
2023-11-24T06:36:24.759Z,90675.09
2023-11-24T06:38:51.461Z,90678.16
2023-11-24T06:41:18.440Z,90676.41
2023-11-24T06:43:45.080Z,90676.53
2023-11-24T06:46:13.238Z,90671.31
2023-11-24T06:48:40.071Z,90674.91
2023-11-24T06:51:07.590Z,90663.94
2023-11-24T06:53:34.721Z,90674.13
2023-11-24T06:56:01.470Z,90674.91
2023-11-24T06:58:28.155Z,90675.22
2023-11-24T07:00:55.035Z,90673.03
2023-11-24T07:03:21.830Z,90671.63
2023-11-24T07:05:48.633Z,90662.19
2023-11-24T07:08:18.137Z,90642.75
2023-11-24T07:10:45.491Z,90665.06
2023-11-24T07:13:12.418Z,90668.69
2023-11-24T07:15:40.757Z,90660.75
2023-11-24T07:18:07.687Z,90659.50
2023-11-24T07:20:34.806Z,90653.06
2023-11-24T07:23:01.518Z,90650.56
2023-11-24T07:25:28.184Z,90662.31
2023-11-24T07:27:54.929Z,90649.63
2023-11-24T07:30:23.933Z,90644.88
2023-11-24T07:32:51.767Z,90645.88
2023-11-24T07:35:19.661Z,90641.59
2023-11-24T07:37:46.408Z,90634.78
2023-11-24T07:40:16.279Z,90637.34
2023-11-24T07:42:45.441Z,90636.34
2023-11-24T07:45:12.928Z,90636.16
2023-11-24T07:47:41.323Z,90607.22
2023-11-24T07:50:08.888Z,90634.81
2023-11-24T07:52:36.557Z,90632.56
2023-11-24T07:55:06.637Z,90636.28
2023-11-24T07:57:33.686Z,90625.22
2023-11-24T08:00:00.471Z,90623.50
2023-11-24T08:02:28.653Z,90599.25
2023-11-24T08:04:56.332Z,90592.00
2023-11-24T08:07:23.273Z,90620.13
2023-11-24T08:09:50.041Z,90606.22
2023-11-24T08:12:18.013Z,90615.56
2023-11-24T08:14:44.936Z,90606.59
2023-11-24T08:17:11.933Z,90604.38
2023-11-24T08:19:38.822Z,90601.88
2023-11-24T08:22:06.092Z,90596.59
2023-11-24T08:24:33.004Z,90593.22
2023-11-24T08:26:59.752Z,90588.84
2023-11-24T08:29:27.643Z,90580.75
2023-11-24T08:31:54.421Z,90588.09
2023-11-24T08:34:21.223Z,90567.78
2023-11-24T08:36:48.123Z,90577.47
2023-11-24T08:39:14.925Z,90577.66
2023-11-24T08:41:46.304Z,90583.78
2023-11-24T08:44:13.419Z,90578.44
2023-11-24T08:46:40.691Z,90574.97
2023-11-24T08:49:09.696Z,90572.47
2023-11-24T08:51:36.590Z,90560.41
2023-11-24T08:54:04.927Z,90568.34
2023-11-24T08:56:31.757Z,90556.50
2023-11-24T08:58:58.701Z,90550.53
2023-11-24T09:01:25.655Z,90531.59
2023-11-24T09:03:53.495Z,90547.72
2023-11-24T09:06:27.795Z,90534.63
2023-11-24T09:08:55.988Z,90493.13
2023-11-24T09:11:23.495Z,90516.94
2023-11-24T09:13:50.341Z,90500.28
2023-11-24T09:16:18.425Z,90491.09
2023-11-24T09:18:46.066Z,90482.69
2023-11-24T09:21:13.903Z,90488.47
2023-11-24T09:23:41.489Z,90481.72
2023-11-24T09:26:16.420Z,90482.81
2023-11-24T09:28:43.790Z,90467.06
2023-11-24T09:31:10.717Z,90457.91
2023-11-24T09:33:39.361Z,90445.34
2023-11-24T09:36:07.922Z,90433.44
2023-11-24T09:38:35.179Z,90421.56
2023-11-24T09:41:12.348Z,90416.63
2023-11-24T09:43:39.569Z,90415.72
2023-11-24T09:46:06.961Z,90418.88
2023-11-24T09:48:35.173Z,90406.34
2023-11-24T09:51:08.923Z,90419.97
2023-11-24T09:53:35.811Z,90406.91
2023-11-24T09:56:04.382Z,90395.50
2023-11-24T09:58:35.315Z,90395.78
2023-11-24T10:01:16.667Z,90379.31
2023-11-24T10:03:47.472Z,90371.63
2023-11-24T10:06:14.674Z,90375.97
2023-11-24T10:08:41.565Z,90366.97
2023-11-24T10:11:14.320Z,90351.91
2023-11-24T10:13:43.039Z,90363.72
2023-11-24T10:16:11.962Z,90368.16
2023-11-24T10:18:39.742Z,90350.38
2023-11-24T10:21:23.554Z,90384.66
2023-11-24T10:23:58.481Z,90382.22
2023-11-24T10:26:27.010Z,90368.72
2023-11-24T10:28:56.101Z,90363.78
2023-11-24T10:31:22.935Z,90363.25
2023-11-24T10:33:50.646Z,90358.28
2023-11-24T10:36:19.460Z,90343.78
2023-11-24T10:38:48.148Z,90366.59
2023-11-24T10:41:24.631Z,90342.59
2023-11-24T10:43:52.707Z,90360.41
2023-11-24T10:46:22.158Z,90350.81
2023-11-24T10:48:59.196Z,90351.53
2023-11-24T10:51:48.223Z,90345.94
2023-11-24T10:54:30.387Z,90349.09
2023-11-24T10:56:58.868Z,90344.22
2023-11-24T10:59:29.204Z,90345.16
2023-11-24T11:01:59.114Z,90363.19
2023-11-24T11:04:28.310Z,90348.00
2023-11-24T11:07:18.158Z,90359.63
2023-11-24T11:09:59.576Z,90342.59
2023-11-24T11:12:32.565Z,90349.94
2023-11-24T11:14:59.783Z,90344.53
2023-11-24T11:17:27.757Z,90360.41
2023-11-24T11:20:05.745Z,90351.44
2023-11-24T11:22:39.156Z,90347.38
2023-11-24T11:25:19.208Z,90338.97
2023-11-24T11:27:49.229Z,90325.25
2023-11-24T11:30:59.979Z,90325.03
2023-11-24T11:34:18.723Z,90325.53
2023-11-24T11:37:31.049Z,90324.66
2023-11-24T11:40:39.358Z,90324.53
2023-11-24T11:43:11.095Z,90323.38
2023-11-24T11:45:51.442Z,90324.47
2023-11-24T11:49:08.206Z,90316.03
2023-11-24T11:52:08.477Z,90314.75
2023-11-24T11:55:14.566Z,90306.84
2023-11-24T11:57:41.301Z,90300.44
2023-11-24T12:00:09.766Z,90293.97
2023-11-24T12:03:33.713Z,90297.16
2023-11-24T12:06:22.368Z,90281.72
2023-11-24T12:09:23.528Z,90282.56
2023-11-24T12:12:26.574Z,90271.81
2023-11-24T12:14:56.024Z,90286.66
2023-11-24T12:17:25.146Z,90260.53
2023-11-24T12:19:53.548Z,90261.31
2023-11-24T12:23:41.280Z,90236.94
2023-11-24T12:26:39.093Z,90220.88
2023-11-24T12:30:15.621Z,90213.22
2023-11-24T12:32:43.923Z,90200.31
2023-11-24T12:35:10.884Z,90198.44
2023-11-24T12:37:41.947Z,90199.06
2023-11-24T12:40:13.217Z,90198.22
2023-11-24T12:42:42.193Z,90188.03
2023-11-24T12:45:10.162Z,90186.19
2023-11-24T12:50:17.554Z,90180.81
2023-11-24T12:52:46.316Z,90173.69
2023-11-24T12:55:13.640Z,90155.22
2023-11-24T12:57:43.835Z,90152.53
2023-11-24T13:00:15.193Z,90137.84
2023-11-24T13:02:42.852Z,90125.31
2023-11-24T13:05:11.686Z,90135.00
2023-11-24T13:07:41.923Z,90134.34
2023-11-24T13:10:12.164Z,90130.22
2023-11-24T13:12:44.643Z,90138.72
2023-11-24T13:15:11.548Z,90129.38
2023-11-24T13:17:39.757Z,90124.91
2023-11-24T13:20:11.756Z,90123.25
2023-11-24T13:22:39.844Z,90126.25
2023-11-24T13:25:10.122Z,90111.72
2023-11-24T13:27:40.645Z,90108.81
2023-11-24T13:30:10.949Z,90109.63
2023-11-24T13:32:42.136Z,90100.78
2023-11-24T13:35:12.780Z,90069.56
2023-11-24T13:37:39.961Z,90069.69
2023-11-24T13:40:07.804Z,90086.38
2023-11-24T13:42:35.591Z,90087.19
2023-11-24T13:45:02.373Z,90084.56
2023-11-24T13:47:29.143Z,90093.03
2023-11-24T13:49:55.951Z,90082.09
2023-11-24T13:52:22.768Z,90091.53
2023-11-24T13:54:51.659Z,90079.09
2023-11-24T13:57:18.397Z,90092.06
2023-11-24T13:59:45.059Z,90093.59
2023-11-24T14:02:11.986Z,90089.16
2023-11-24T14:04:39.373Z,90095.59
2023-11-24T14:07:06.174Z,90102.97
2023-11-24T14:09:44.159Z,90101.75
2023-11-24T14:12:11.076Z,90106.38
2023-11-24T14:14:37.955Z,90100.34
2023-11-24T14:17:05.340Z,90105.53
2023-11-24T14:19:32.290Z,90106.66
2023-11-24T14:22:00.709Z,90108.81
2023-11-24T14:24:27.564Z,90110.09
2023-11-24T14:26:55.591Z,90107.34
2023-11-24T14:29:22.307Z,90106.44
2023-11-24T14:31:49.103Z,90112.19
2023-11-24T14:34:19.189Z,90118.13
2023-11-24T14:36:46.745Z,90121.03
2023-11-24T14:42:25.278Z,90127.41
2023-11-24T14:44:52.018Z,90129.16
2023-11-24T14:47:18.765Z,90138.31
2023-11-24T14:49:45.486Z,90143.69
2023-11-24T14:52:13.222Z,90136.72
2023-11-24T14:54:40.059Z,90133.38
2023-11-24T14:57:07.245Z,90140.53
2023-11-24T14:59:33.999Z,90129.97
2023-11-24T15:02:09.000Z,90123.38
2023-11-24T15:04:49.523Z,90125.72
2023-11-24T15:07:31.697Z,90128.88
2023-11-24T15:10:10.392Z,90117.63
2023-11-24T15:13:03.880Z,90123.75
2023-11-24T15:15:31.606Z,90096.41
2023-11-24T15:18:01.416Z,90109.63
2023-11-24T15:20:33.604Z,90115.56
2023-11-24T15:23:00.480Z,90108.53
2023-11-24T15:25:28.409Z,90095.16
2023-11-24T15:27:59.767Z,90085.09
2023-11-24T15:30:26.536Z,90094.06
2023-11-24T15:32:54.475Z,90092.00
2023-11-24T15:35:21.296Z,90098.41
2023-11-24T15:37:47.999Z,90086.06
2023-11-24T15:40:20.821Z,90095.03
2023-11-24T15:42:56.092Z,90096.09
2023-11-24T15:45:29.792Z,90096.09
2023-11-24T15:48:09.704Z,90090.91
2023-11-24T15:50:42.661Z,90090.91
2023-11-24T15:53:24.058Z,90080.41
2023-11-24T15:55:54.668Z,90068.47
2023-11-24T15:58:26.554Z,90073.06
2023-11-24T16:00:55.834Z,90066.38
2023-11-24T16:03:24.904Z,90060.38
2023-11-24T16:06:09.452Z,90058.84
2023-11-24T16:08:45.386Z,90054.50
2023-11-24T16:11:12.362Z,90054.41
2023-11-24T16:13:42.627Z,90038.38
2023-11-24T16:16:10.030Z,90046.22
2023-11-24T16:18:40.607Z,90031.34
2023-11-24T16:21:08.508Z,90031.72
2023-11-24T16:23:35.183Z,90034.59
2023-11-24T16:26:01.998Z,90034.25
2023-11-24T16:28:28.887Z,90037.09
2023-11-24T16:30:56.098Z,90022.31
2023-11-24T16:33:22.910Z,90015.50
2023-11-24T16:35:49.571Z,90023.38
2023-11-24T16:38:16.381Z,90020.41
2023-11-24T16:40:43.127Z,90019.31
2023-11-24T16:43:10.003Z,90002.78
2023-11-24T16:45:37.359Z,90007.75
2023-11-24T16:48:05.598Z,89995.66
2023-11-24T16:50:35.254Z,90000.59
2023-11-24T16:53:02.045Z,89992.69
2023-11-24T16:55:31.386Z,90006.94
2023-11-24T16:57:58.234Z,89989.94
2023-11-24T17:00:24.957Z,89974.97
2023-11-24T17:02:52.577Z,89974.09
2023-11-24T17:05:21.994Z,89972.53
2023-11-24T17:07:48.691Z,89979.34
2023-11-24T17:10:15.644Z,89970.88
2023-11-24T17:12:42.987Z,89958.88
2023-11-24T17:15:24.201Z,89967.34
2023-11-24T17:17:54.687Z,89962.56
2023-11-24T17:20:21.420Z,89952.28
2023-11-24T17:22:48.975Z,89961.59
2023-11-24T17:25:27.848Z,89951.06
2023-11-24T17:27:59.164Z,89940.63
2023-11-24T17:30:25.961Z,89937.50
2023-11-24T17:32:52.708Z,89965.94
2023-11-24T17:35:19.585Z,89947.53
2023-11-24T17:37:47.902Z,89959.16
2023-11-24T17:40:16.834Z,89947.47
2023-11-24T17:42:43.916Z,89953.13
2023-11-24T17:45:17.108Z,89954.59
2023-11-24T17:47:48.339Z,89940.06
2023-11-24T17:50:15.236Z,89921.25
2023-11-24T17:52:42.355Z,89932.31
2023-11-24T17:55:10.311Z,89926.72
2023-11-24T17:57:37.922Z,89914.91
2023-11-24T18:00:09.887Z,89925.22
2023-11-24T18:02:36.716Z,89923.97
2023-11-24T18:05:03.548Z,89922.09
2023-11-24T18:07:30.322Z,89914.28
2023-11-24T18:09:57.048Z,89942.88
2023-11-24T18:12:23.836Z,89910.13
2023-11-24T18:14:50.553Z,89906.81
2023-11-24T18:17:17.278Z,89901.44
2023-11-24T18:19:44.046Z,89901.44
2023-11-24T18:22:11.005Z,89892.84
2023-11-24T18:24:38.286Z,89893.44
2023-11-24T18:27:05.453Z,89890.88
2023-11-24T18:29:55.200Z,89880.72
2023-11-24T18:32:23.342Z,89888.66
2023-11-24T18:34:50.576Z,89871.56
2023-11-24T18:37:18.802Z,89872.13
2023-11-24T18:39:48.001Z,89869.84
2023-11-24T18:42:15.011Z,89871.91
2023-11-24T18:44:41.789Z,89877.22
2023-11-24T18:47:08.489Z,89875.31
2023-11-24T18:49:35.183Z,89863.09
2023-11-24T18:52:02.065Z,89852.94
2023-11-24T18:54:29.940Z,89849.28
2023-11-24T18:56:59.327Z,89852.66
2023-11-24T19:02:19.492Z,89857.78
2023-11-24T19:04:46.599Z,89857.78
2023-11-24T19:07:13.459Z,89850.72
2023-11-24T19:09:40.837Z,89875.78
2023-11-24T19:12:07.878Z,89851.13
2023-11-24T19:14:35.643Z,89848.78
2023-11-24T19:17:02.505Z,89843.53
2023-11-24T19:19:54.221Z,89834.50
2023-11-24T19:22:40.148Z,89849.84
2023-11-24T19:25:07.249Z,89865.19
2023-11-24T19:27:34.983Z,89843.72
2023-11-24T19:30:01.842Z,89846.41
2023-11-24T19:32:28.885Z,89847.97
2023-11-24T19:34:55.937Z,89852.19
2023-11-24T19:37:22.833Z,89836.78
2023-11-24T19:39:49.894Z,89834.56
2023-11-24T19:42:19.083Z,89834.16
2023-11-24T19:44:48.023Z,89821.53
2023-11-24T19:47:14.915Z,89812.25
2023-11-24T19:49:41.617Z,89799.44
2023-11-24T19:52:10.559Z,89812.91
2023-11-24T19:54:37.391Z,89815.59
2023-11-24T19:57:05.469Z,89797.91
2023-11-24T19:59:32.216Z,89821.19
2023-11-24T20:02:00.994Z,89804.25
2023-11-24T20:04:28.689Z,89793.59
2023-11-24T20:06:55.465Z,89776.19
2023-11-24T20:09:23.656Z,89775.47
2023-11-24T20:11:52.728Z,89792.78
2023-11-24T20:14:19.673Z,89786.41
2023-11-24T20:16:49.837Z,89764.75
2023-11-24T20:19:16.780Z,89784.94
2023-11-24T20:21:43.456Z,89785.41
2023-11-24T20:24:11.462Z,89781.91
2023-11-24T20:26:38.685Z,89755.28
2023-11-24T20:29:05.440Z,89773.81
2023-11-24T20:31:32.332Z,89759.03
2023-11-24T20:33:59.240Z,89758.69
2023-11-24T20:36:26.096Z,89763.25
2023-11-24T20:38:58.418Z,89721.50
2023-11-24T20:41:25.152Z,89748.00
2023-11-24T20:43:52.108Z,89741.69
2023-11-24T20:46:18.987Z,89741.34
2023-11-24T20:48:46.783Z,89734.56
2023-11-24T20:51:14.987Z,89736.44
2023-11-24T20:53:41.864Z,89727.78
2023-11-24T20:56:11.882Z,89732.28
2023-11-24T20:58:39.462Z,89729.66
2023-11-24T21:01:06.596Z,89753.06
2023-11-24T21:03:33.346Z,89732.75
2023-11-24T21:06:00.378Z,89725.50
2023-11-24T21:08:28.112Z,89725.94
2023-11-24T21:10:54.913Z,89750.63
2023-11-24T21:13:23.513Z,89754.41
2023-11-24T21:15:50.888Z,89742.34
2023-11-24T21:18:17.706Z,89747.41
2023-11-24T21:20:44.458Z,89735.50
2023-11-24T21:23:13.200Z,89730.59
2023-11-24T21:25:40.396Z,89734.00
2023-11-24T21:28:09.064Z,89722.72
2023-11-24T21:30:35.916Z,89725.81
2023-11-24T21:33:03.293Z,89718.69
2023-11-24T21:35:32.155Z,89722.06
2023-11-24T21:37:59.267Z,89725.34
2023-11-24T21:40:26.262Z,89711.28
2023-11-24T21:42:53.129Z,89706.69
2023-11-24T21:45:19.915Z,89695.13
2023-11-24T21:47:47.231Z,89709.44
2023-11-24T21:50:14.937Z,89716.53
2023-11-24T21:52:45.651Z,89713.41
2023-11-24T21:55:12.655Z,89708.50
2023-11-24T21:57:39.687Z,89711.13
2023-11-24T22:00:07.960Z,89713.84
2023-11-24T22:02:40.526Z,89716.53
2023-11-24T22:05:10.531Z,89723.19
2023-11-24T22:07:38.542Z,89709.28
2023-11-24T22:10:06.631Z,89719.09
2023-11-24T22:12:37.240Z,89700.59
2023-11-24T22:15:05.506Z,89706.16
2023-11-24T22:17:35.338Z,89697.06
2023-11-24T22:20:08.434Z,89690.44
2023-11-24T22:22:35.489Z,89690.63
2023-11-24T22:25:02.407Z,89684.28
2023-11-24T22:27:29.121Z,89669.78
2023-11-24T22:30:03.675Z,89667.16
2023-11-24T22:32:33.363Z,89664.06
2023-11-24T22:35:00.769Z,89652.88
2023-11-24T22:37:28.076Z,89649.44
2023-11-24T22:39:54.792Z,89644.25
2023-11-24T22:42:23.976Z,89638.34
2023-11-24T22:44:51.614Z,89622.94
2023-11-24T22:47:19.363Z,89624.47
2023-11-24T22:49:46.323Z,89611.38
2023-11-24T22:52:13.184Z,89612.09
2023-11-24T22:54:40.429Z,89597.91
2023-11-24T22:57:07.931Z,89595.16
2023-11-24T22:59:34.741Z,89593.50
2023-11-24T23:02:01.758Z,89592.59
2023-11-24T23:04:28.685Z,89585.88
2023-11-24T23:06:55.438Z,89574.09
2023-11-24T23:09:22.965Z,89568.44
2023-11-24T23:11:50.385Z,89577.13
2023-11-24T23:14:17.214Z,89567.94
2023-11-24T23:16:45.327Z,89557.59
2023-11-24T23:19:13.035Z,89561.28
2023-11-24T23:21:42.026Z,89542.81
2023-11-24T23:24:11.979Z,89551.84
2023-11-24T23:26:39.465Z,89535.97
2023-11-24T23:29:08.186Z,89530.38
2023-11-24T23:31:35.178Z,89538.84
2023-11-24T23:34:02.485Z,89543.34
2023-11-24T23:36:29.706Z,89546.94
2023-11-24T23:38:56.633Z,89523.13
2023-11-24T23:41:23.645Z,89539.44
2023-11-24T23:43:50.479Z,89528.22
2023-11-24T23:46:17.448Z,89514.47
2023-11-24T23:48:44.411Z,89518.56
2023-11-24T23:51:11.321Z,89524.69
2023-11-24T23:53:38.051Z,89505.19
2023-11-24T23:56:06.836Z,89504.28
2023-11-24T23:58:35.762Z,89517.31
